Time;durP1;ratioP1;P1;durP2;ratioP2;P2;SDS_P1;SDS_P2;PMS_P1;PMS_P2;Temp;Humidity;BMP_temperature;BMP_pressure;BME280_temperature;BME280_humidity;BME280_pressure;Samples;Min_cycle;Max_cycle;Signal;HPM_P1;HPM_P2
2023/04/28 00:01:25;;;;;;;4.33;2.23;;;;;;;;;;5010651;28;20449;-64
2023/04/28 00:03:52;;;;;;;4.93;2.10;;;;;;;;;;5010582;28;20489;-63
2023/04/28 00:06:19;;;;;;;5.13;2.43;;;;;;;;;;5010818;28;20425;-63
2023/04/28 00:08:46;;;;;;;3.03;2.13;;;;;;;;;;5010808;28;20435;-63
2023/04/28 00:11:13;;;;;;;4.57;2.00;;;;;;;;;;5010603;28;20431;-64
2023/04/28 00:13:40;;;;;;;3.57;1.50;;;;;;;;;;5010873;28;20942;-63
2023/04/28 00:16:06;;;;;;;3.80;1.70;;;;;;;;;;5010182;28;20445;-63
2023/04/28 00:18:34;;;;;;;6.63;2.20;;;;;;;;;;5010331;28;20478;-64
2023/04/28 00:21:00;;;;;;;5.97;2.10;;;;;;;;;;5010708;28;20429;-63
2023/04/28 00:23:27;;;;;;;6.70;1.80;;;;;;;;;;5010277;28;20419;-63
2023/04/28 00:25:54;;;;;;;3.87;1.90;;;;;;;;;;5010215;28;20431;-64
2023/04/28 00:28:20;;;;;;;5.67;2.10;;;;;;;;;;5009980;28;20983;-64
2023/04/28 00:30:59;;;;;;;6.90;2.53;;;;;;;;;;5008690;28;20448;-63
2023/04/28 00:33:26;;;;;;;3.90;1.73;;;;;;;;;;5010012;28;20437;-63
2023/04/28 00:35:59;;;;;;;3.93;1.67;;;;;;;;;;5008865;28;20499;-63
2023/04/28 00:38:27;;;;;;;2.70;1.70;;;;;;;;;;5009860;28;20471;-64
2023/04/28 00:40:53;;;;;;;5.10;2.20;;;;;;;;;;5023569;28;20525;-63
2023/04/28 00:43:20;;;;;;;4.77;2.00;;;;;;;;;;5030149;28;20430;-64
2023/04/28 00:45:48;;;;;;;4.80;1.60;;;;;;;;;;5028511;28;20529;-64
2023/04/28 00:48:15;;;;;;;4.63;1.90;;;;;;;;;;5029800;28;20426;-63
2023/04/28 00:50:42;;;;;;;3.40;1.87;;;;;;;;;;5012045;28;20485;-64
2023/04/28 00:53:11;;;;;;;3.17;1.70;;;;;;;;;;5029197;28;20426;-64
2023/04/28 00:55:38;;;;;;;4.47;1.80;;;;;;;;;;5029909;28;20434;-63
2023/04/28 00:58:05;;;;;;;3.53;1.60;;;;;;;;;;5011584;28;20446;-63
2023/04/28 01:00:32;;;;;;;4.87;1.80;;;;;;;;;;5029200;28;20472;-63
2023/04/28 01:02:58;;;;;;;6.70;2.20;;;;;;;;;;5028438;28;20493;-64
2023/04/28 01:05:27;;;;;;;4.50;1.93;;;;;;;;;;4995388;28;20451;-63
2023/04/28 01:07:55;;;;;;;3.80;1.80;;;;;;;;;;5028895;28;20436;-63
2023/04/28 01:10:22;;;;;;;5.47;2.13;;;;;;;;;;5044944;28;20464;-64
2023/04/28 01:12:49;;;;;;;4.60;1.73;;;;;;;;;;5011144;28;20845;-64
2023/04/28 01:15:16;;;;;;;4.43;2.13;;;;;;;;;;5011339;28;20430;-64
2023/04/28 01:17:44;;;;;;;3.33;1.90;;;;;;;;;;5011021;28;20489;-64
2023/04/28 01:20:11;;;;;;;6.33;2.27;;;;;;;;;;5006918;28;21205;-64
2023/04/28 01:22:39;;;;;;;4.47;1.97;;;;;;;;;;4992026;28;20493;-64
2023/04/28 01:25:07;;;;;;;3.73;2.00;;;;;;;;;;4991737;28;20861;-63
2023/04/28 01:27:33;;;;;;;3.13;1.97;;;;;;;;;;4991544;28;20440;-63
2023/04/28 01:30:03;;;;;;;3.60;2.00;;;;;;;;;;4991620;28;20531;-63
2023/04/28 01:32:30;;;;;;;4.13;2.13;;;;;;;;;;4991264;28;20775;-64
2023/04/28 01:34:57;;;;;;;4.03;2.20;;;;;;;;;;5024826;28;20495;-64
2023/04/28 01:37:24;;;;;;;4.63;2.10;;;;;;;;;;5023692;28;20479;-64
2023/04/28 01:39:52;;;;;;;4.13;1.97;;;;;;;;;;5014004;28;20827;-63
2023/04/28 02:14:45;;;;;;;4.47;1.77;;;;;;;;;;5008752;28;20406;-63
2023/04/28 02:17:17;;;;;;;5.30;2.57;;;;;;;;;;5007560;28;20455;-64
2023/04/28 02:19:43;;;;;;;3.73;2.23;;;;;;;;;;4990798;28;21029;-63
2023/04/28 02:22:11;;;;;;;5.53;2.20;;;;;;;;;;4990687;28;20502;-64
2023/04/28 02:24:39;;;;;;;4.77;2.37;;;;;;;;;;4990738;28;20441;-63
2023/04/28 02:27:06;;;;;;;5.23;2.10;;;;;;;;;;4990603;28;20442;-65
2023/04/28 02:29:32;;;;;;;5.40;2.47;;;;;;;;;;5008356;28;20531;-63
2023/04/28 02:31:59;;;;;;;6.27;2.17;;;;;;;;;;5008322;28;20438;-64
2023/04/28 02:34:26;;;;;;;6.20;2.20;;;;;;;;;;4990797;28;20510;-62
2023/04/28 02:36:53;;;;;;;6.97;2.20;;;;;;;;;;5028021;28;20430;-63
2023/04/28 02:39:25;;;;;;;4.73;2.20;;;;;;;;;;5027848;28;20970;-64
2023/04/28 02:41:55;;;;;;;5.47;2.70;;;;;;;;;;5027705;28;20441;-63
2023/04/28 02:44:23;;;;;;;9.80;2.60;;;;;;;;;;5010168;28;20446;-64
2023/04/28 02:46:50;;;;;;;5.20;2.53;;;;;;;;;;5027650;28;20888;-64
2023/04/28 02:49:17;;;;;;;6.70;2.57;;;;;;;;;;5027801;28;20427;-64
2023/04/28 02:51:44;;;;;;;6.67;3.03;;;;;;;;;;5006364;28;20459;-63
2023/04/28 02:54:11;;;;;;;6.33;2.80;;;;;;;;;;5006492;28;21184;-64
2023/04/28 02:56:39;;;;;;;5.10;2.47;;;;;;;;;;5006902;28;20554;-63
2023/04/28 02:59:07;;;;;;;6.63;2.53;;;;;;;;;;5007842;28;20490;-64
2023/04/28 03:01:33;;;;;;;4.57;2.47;;;;;;;;;;5008314;28;20423;-63
2023/04/28 03:04:00;;;;;;;4.50;2.60;;;;;;;;;;5008082;28;20435;-63
2023/04/28 03:06:27;;;;;;;6.10;2.60;;;;;;;;;;5007125;28;20465;-64
2023/04/28 03:08:54;;;;;;;4.30;2.53;;;;;;;;;;5013856;28;20450;-64
2023/04/28 03:11:21;;;;;;;4.20;2.60;;;;;;;;;;5036470;28;20450;-63
2023/04/28 03:13:48;;;;;;;6.27;2.40;;;;;;;;;;5008339;28;20451;-63
2023/04/28 03:16:14;;;;;;;5.37;2.43;;;;;;;;;;5008694;28;21038;-63
2023/04/28 03:18:42;;;;;;;5.33;2.30;;;;;;;;;;5026105;28;20845;-66
2023/04/28 03:21:09;;;;;;;7.27;2.70;;;;;;;;;;5008380;28;21023;-64
2023/04/28 03:23:35;;;;;;;6.43;2.47;;;;;;;;;;5024302;28;20454;-64
2023/04/28 03:26:03;;;;;;;6.33;2.57;;;;;;;;;;5008977;28;20487;-64
2023/04/28 03:28:30;;;;;;;5.07;2.50;;;;;;;;;;5009290;28;20586;-63
2023/04/28 03:30:58;;;;;;;5.70;2.70;;;;;;;;;;5012334;28;20454;-63
2023/04/28 03:33:25;;;;;;;5.10;2.33;;;;;;;;;;5011116;28;20503;-64
2023/04/28 03:35:53;;;;;;;6.87;2.60;;;;;;;;;;5028519;28;20529;-63
2023/04/28 03:38:20;;;;;;;4.87;2.67;;;;;;;;;;5011336;28;20550;-64
2023/04/28 03:40:46;;;;;;;5.53;2.80;;;;;;;;;;5022048;28;20479;-63
2023/04/28 03:43:13;;;;;;;8.10;2.70;;;;;;;;;;5051180;28;20420;-64
2023/04/28 03:45:49;;;;;;;3.93;2.37;;;;;;;;;;5011529;28;20879;-64
2023/04/28 03:48:15;;;;;;;5.87;3.00;;;;;;;;;;5010533;28;20455;-64
2023/04/28 03:50:44;;;;;;;7.33;2.60;;;;;;;;;;5029761;28;20533;-64
2023/04/28 03:53:11;;;;;;;4.63;2.23;;;;;;;;;;5027272;28;20457;-64
2023/04/28 03:55:37;;;;;;;6.50;2.57;;;;;;;;;;5027926;28;20556;-64
2023/04/28 03:58:04;;;;;;;6.70;2.87;;;;;;;;;;5011206;28;20460;-64
2023/04/28 04:00:32;;;;;;;4.33;2.50;;;;;;;;;;5012653;28;20510;-64
2023/04/28 04:03:00;;;;;;;4.07;2.27;;;;;;;;;;5011950;28;21163;-63
2023/04/28 04:05:27;;;;;;;4.93;2.30;;;;;;;;;;4997758;28;20545;-64
2023/04/28 04:07:54;;;;;;;8.97;3.00;;;;;;;;;;5028757;28;20854;-63
2023/04/28 04:10:21;;;;;;;5.00;2.70;;;;;;;;;;5010043;28;20460;-65
2023/04/28 04:12:48;;;;;;;7.33;2.80;;;;;;;;;;5009986;28;20880;-64
2023/04/28 04:15:16;;;;;;;4.57;2.50;;;;;;;;;;5027267;28;20952;-66
2023/04/28 04:17:46;;;;;;;5.37;2.70;;;;;;;;;;5009871;28;20473;-61
2023/04/28 04:20:13;;;;;;;4.77;2.30;;;;;;;;;;4994574;28;20564;-64
2023/04/28 04:22:40;;;;;;;5.17;2.37;;;;;;;;;;5011378;28;20191;-63
2023/04/28 04:25:07;;;;;;;5.50;2.40;;;;;;;;;;5007736;28;20446;-64
2023/04/28 04:27:34;;;;;;;8.47;2.60;;;;;;;;;;5023928;28;20192;-64
2023/04/28 04:30:01;;;;;;;5.83;2.67;;;;;;;;;;5034886;28;20437;-63
2023/04/28 04:32:28;;;;;;;3.90;2.27;;;;;;;;;;5028252;28;20482;-65
2023/04/28 04:34:56;;;;;;;3.30;1.80;;;;;;;;;;5031775;28;20184;-64
2023/04/28 04:37:24;;;;;;;5.83;2.20;;;;;;;;;;5007963;28;20230;-63
2023/04/28 04:39:56;;;;;;;6.07;2.50;;;;;;;;;;5011460;28;20482;-64
2023/04/28 04:42:23;;;;;;;4.23;2.60;;;;;;;;;;5013299;28;20195;-63
2023/04/28 04:45:14;;;;;;;9.60;2.50;;;;;;;;;;5010590;28;20562;-62
2023/04/28 04:47:41;;;;;;;4.00;2.40;;;;;;;;;;5029179;28;20191;-63
2023/04/28 04:50:09;;;;;;;8.40;2.80;;;;;;;;;;5011923;28;20203;-63
2023/04/28 04:52:36;;;;;;;6.33;2.70;;;;;;;;;;5010684;28;20199;-63
2023/04/28 04:55:04;;;;;;;7.53;3.33;;;;;;;;;;5009115;28;20219;-63
2023/04/28 04:57:31;;;;;;;6.60;2.50;;;;;;;;;;5012090;28;20231;-63
2023/04/28 05:00:24;;;;;;;5.33;2.60;;;;;;;;;;5024310;28;20698;-64
2023/04/28 05:02:52;;;;;;;5.33;2.70;;;;;;;;;;5009632;28;20261;-63
2023/04/28 05:05:19;;;;;;;7.63;2.60;;;;;;;;;;5017769;28;20645;-62
2023/04/28 05:08:07;;;;;;;3.73;2.20;;;;;;;;;;5025132;28;20210;-66
2023/04/28 05:10:37;;;;;;;4.43;2.43;;;;;;;;;;5019488;28;20200;-63
2023/04/28 05:13:04;;;;;;;6.20;2.40;;;;;;;;;;5011557;28;20199;-64
2023/04/28 05:15:31;;;;;;;8.33;3.17;;;;;;;;;;5027526;28;20188;-65
2023/04/28 05:18:27;;;;;;;6.90;3.50;;;;;;;;;;5009771;28;20317;-64
2023/04/28 05:20:55;;;;;;;6.17;3.37;;;;;;;;;;5027156;28;20223;-65
2023/04/28 05:23:23;;;;;;;8.00;3.47;;;;;;;;;;5030808;28;20251;-65
2023/04/28 05:25:50;;;;;;;6.43;3.07;;;;;;;;;;4989485;28;20283;-67
2023/04/28 05:28:17;;;;;;;6.80;3.23;;;;;;;;;;5003475;28;20191;-63
2023/04/28 05:30:48;;;;;;;4.53;2.50;;;;;;;;;;5001408;28;20242;-66
2023/04/28 05:33:15;;;;;;;7.03;3.60;;;;;;;;;;5025487;28;20315;-64
2023/04/28 05:35:42;;;;;;;5.83;2.90;;;;;;;;;;5041171;28;20200;-64
2023/04/28 05:38:10;;;;;;;5.57;2.90;;;;;;;;;;5024668;28;20206;-64
2023/04/28 05:40:36;;;;;;;5.60;2.90;;;;;;;;;;5006412;28;20274;-63
2023/04/28 05:43:03;;;;;;;4.33;2.93;;;;;;;;;;5008566;28;20188;-63
2023/04/28 05:45:31;;;;;;;4.87;2.70;;;;;;;;;;5008215;28;20566;-64
2023/04/28 05:47:58;;;;;;;6.00;2.77;;;;;;;;;;5008214;28;20681;-63
2023/04/28 05:50:25;;;;;;;7.03;2.47;;;;;;;;;;5008590;28;20223;-63
2023/04/28 05:52:54;;;;;;;5.93;2.80;;;;;;;;;;5007572;28;20289;-64
2023/04/28 05:55:21;;;;;;;6.20;2.67;;;;;;;;;;5008817;28;20205;-63
2023/04/28 05:57:48;;;;;;;6.83;2.90;;;;;;;;;;5006418;28;20195;-64
2023/04/28 06:00:21;;;;;;;5.93;2.80;;;;;;;;;;4992204;28;20230;-64
2023/04/28 06:02:50;;;;;;;6.10;3.10;;;;;;;;;;5021534;28;20203;-63
2023/04/28 06:05:17;;;;;;;6.37;3.23;;;;;;;;;;5006941;28;20781;-66
2023/04/28 06:07:45;;;;;;;7.83;3.13;;;;;;;;;;5010979;28;20298;-66
2023/04/28 06:10:15;;;;;;;7.10;2.80;;;;;;;;;;5011090;28;20211;-69
2023/04/28 06:12:42;;;;;;;6.43;2.07;;;;;;;;;;5034020;28;20186;-72
2023/04/28 06:15:10;;;;;;;5.70;2.50;;;;;;;;;;5043013;28;20268;-69
2023/04/28 06:17:37;;;;;;;4.00;2.07;;;;;;;;;;5027090;28;20591;-70
2023/04/28 06:20:06;;;;;;;5.63;1.70;;;;;;;;;;5026703;28;20250;-69
2023/04/28 06:22:33;;;;;;;5.93;2.27;;;;;;;;;;5008260;28;20194;-70
2023/04/28 06:25:00;;;;;;;3.20;1.77;;;;;;;;;;5025471;28;20187;-69
2023/04/28 06:27:33;;;;;;;6.73;2.00;;;;;;;;;;5008264;28;20529;-70
2023/04/28 06:30:00;;;;;;;5.43;1.80;;;;;;;;;;5026306;28;20214;-67
2023/04/28 06:32:27;;;;;;;3.50;1.70;;;;;;;;;;5032244;28;20590;-70
2023/04/28 06:34:53;;;;;;;4.87;1.90;;;;;;;;;;4992532;28;20207;-69
2023/04/28 06:37:24;;;;;;;4.30;2.40;;;;;;;;;;5009083;28;21099;-70
2023/04/28 06:39:52;;;;;;;5.47;2.03;;;;;;;;;;5008610;28;20176;-70
2023/04/28 06:42:19;;;;;;;5.07;2.47;;;;;;;;;;5025704;28;20725;-69
2023/04/28 06:44:58;;;;;;;3.50;1.50;;;;;;;;;;5007754;28;20195;-70
2023/04/28 06:47:26;;;;;;;7.30;1.90;;;;;;;;;;4992233;28;20214;-69
2023/04/28 06:49:53;;;;;;;4.67;1.60;;;;;;;;;;5008520;28;20732;-67
2023/04/28 06:52:22;;;;;;;7.63;1.60;;;;;;;;;;5026787;28;20666;-69
2023/04/28 06:55:06;;;;;;;5.23;1.60;;;;;;;;;;5006964;28;20191;-69
2023/04/28 06:57:33;;;;;;;4.13;1.40;;;;;;;;;;4989873;28;20741;-68
2023/04/28 07:00:00;;;;;;;4.50;1.60;;;;;;;;;;4992901;28;20567;-66
2023/04/28 07:02:27;;;;;;;4.20;1.77;;;;;;;;;;5024056;28;20191;-68
2023/04/28 07:04:54;;;;;;;3.30;1.43;;;;;;;;;;5027841;28;20199;-70
2023/04/28 07:07:25;;;;;;;5.07;1.93;;;;;;;;;;5019731;23;20574;-66
2023/04/28 07:09:52;;;;;;;4.40;1.43;;;;;;;;;;4992721;28;20279;-66
2023/04/28 07:12:19;;;;;;;4.97;1.50;;;;;;;;;;4995532;28;20207;-67
2023/04/28 07:14:46;;;;;;;3.50;1.40;;;;;;;;;;4993306;28;20303;-67
2023/04/28 07:17:13;;;;;;;7.30;1.67;;;;;;;;;;5008812;28;20199;-66
2023/04/28 07:19:40;;;;;;;5.47;1.60;;;;;;;;;;5001295;28;20271;-66
2023/04/28 07:22:06;;;;;;;4.70;1.50;;;;;;;;;;5008470;28;20231;-69
2023/04/28 07:24:33;;;;;;;6.20;1.50;;;;;;;;;;4989271;28;20187;-67
2023/04/28 07:27:02;;;;;;;3.70;1.77;;;;;;;;;;5009294;28;20188;-66
2023/04/28 07:29:32;;;;;;;2.70;1.43;;;;;;;;;;5006627;28;20196;-64
2023/04/28 07:32:00;;;;;;;5.57;1.50;;;;;;;;;;5008386;28;20231;-64
2023/04/28 07:34:30;;;;;;;3.53;1.70;;;;;;;;;;5000365;28;20564;-66
2023/04/28 07:36:58;;;;;;;5.60;1.70;;;;;;;;;;4989988;28;20752;-65
2023/04/28 07:39:25;;;;;;;3.73;1.30;;;;;;;;;;4997718;28;20215;-66
2023/04/28 07:41:52;;;;;;;3.83;1.23;;;;;;;;;;5008167;28;20336;-65
2023/04/28 07:44:19;;;;;;;3.10;1.50;;;;;;;;;;5009990;28;20622;-68
2023/04/28 07:46:46;;;;;;;2.70;1.37;;;;;;;;;;4994208;28;20984;-67
2023/04/28 07:49:13;;;;;;;4.97;1.57;;;;;;;;;;4972901;28;20197;-64
2023/04/28 07:51:39;;;;;;;3.27;1.17;;;;;;;;;;5002200;28;20191;-65
2023/04/28 07:54:07;;;;;;;3.00;1.30;;;;;;;;;;5007613;28;20188;-64
2023/04/28 07:56:34;;;;;;;4.37;1.30;;;;;;;;;;5010911;28;20223;-66
2023/04/28 07:59:00;;;;;;;4.97;1.30;;;;;;;;;;5010834;28;20224;-65
2023/04/28 08:01:27;;;;;;;3.33;1.40;;;;;;;;;;5010552;28;20204;-64
2023/04/28 08:03:55;;;;;;;6.03;1.27;;;;;;;;;;5007361;28;20258;-64
2023/04/28 08:06:25;;;;;;;4.00;1.33;;;;;;;;;;5009386;28;20630;-64
2023/04/28 08:08:51;;;;;;;4.27;1.23;;;;;;;;;;5008563;28;20236;-64
2023/04/28 08:11:18;;;;;;;3.13;1.40;;;;;;;;;;4992627;28;20351;-64
2023/04/28 08:13:45;;;;;;;2.77;0.97;;;;;;;;;;5011630;28;20194;-65
2023/04/28 08:16:12;;;;;;;2.43;1.00;;;;;;;;;;5011093;28;20275;-64
2023/04/28 08:18:40;;;;;;;2.27;1.03;;;;;;;;;;5003747;28;20243;-64
2023/04/28 08:21:06;;;;;;;1.60;1.20;;;;;;;;;;5010401;28;20208;-64
2023/04/28 08:23:34;;;;;;;2.57;1.20;;;;;;;;;;5003832;28;20216;-64
2023/04/28 08:26:01;;;;;;;2.87;1.30;;;;;;;;;;5008917;28;20230;-63
2023/04/28 08:28:27;;;;;;;3.07;1.00;;;;;;;;;;5008637;28;20660;-64
2023/04/28 08:30:54;;;;;;;1.63;1.10;;;;;;;;;;5010417;28;20207;-64
2023/04/28 08:33:23;;;;;;;3.97;1.00;;;;;;;;;;4991614;28;20196;-64
2023/04/28 08:35:49;;;;;;;2.63;1.20;;;;;;;;;;5009984;28;20627;-63
2023/04/28 08:38:17;;;;;;;3.87;1.00;;;;;;;;;;4988489;28;20243;-62
2023/04/28 08:40:44;;;;;;;4.83;1.50;;;;;;;;;;5002475;28;20212;-66
2023/04/28 08:43:12;;;;;;;4.13;1.20;;;;;;;;;;4993582;28;20552;-64
2023/04/28 08:45:42;;;;;;;2.93;1.10;;;;;;;;;;5008212;28;20199;-65
2023/04/28 08:48:13;;;;;;;4.03;1.20;;;;;;;;;;5003099;28;20181;-64
2023/04/28 08:50:40;;;;;;;2.40;1.30;;;;;;;;;;4988611;28;20677;-64
2023/04/28 08:53:07;;;;;;;2.40;1.10;;;;;;;;;;4975030;28;20204;-64
2023/04/28 08:55:33;;;;;;;2.70;1.10;;;;;;;;;;5007848;28;20188;-67
2023/04/28 08:58:00;;;;;;;2.90;1.00;;;;;;;;;;5003934;28;20197;-64
2023/04/28 09:00:27;;;;;;;2.77;1.57;;;;;;;;;;4970939;28;20196;-64
2023/04/28 09:02:55;;;;;;;2.97;1.10;;;;;;;;;;4990522;28;20193;-66
2023/04/28 09:05:22;;;;;;;2.23;1.20;;;;;;;;;;5007841;28;20266;-69
2023/04/28 09:07:50;;;;;;;4.77;1.60;;;;;;;;;;5014686;28;20233;-68
2023/04/28 09:10:17;;;;;;;4.03;1.40;;;;;;;;;;4996359;28;20321;-69
2023/04/28 09:12:45;;;;;;;5.27;1.60;;;;;;;;;;5008750;28;20271;-67
2023/04/28 09:15:28;;;;;;;3.57;1.60;;;;;;;;;;5026905;28;20283;-68
2023/04/28 09:17:58;;;;;;;4.20;1.87;;;;;;;;;;5022622;28;20188;-68
2023/04/28 09:20:25;;;;;;;5.50;2.10;;;;;;;;;;5020028;28;20682;-67
2023/04/28 09:22:52;;;;;;;5.17;1.80;;;;;;;;;;5007066;28;20220;-66
2023/04/28 09:25:21;;;;;;;6.00;2.10;;;;;;;;;;5008094;28;20291;-66
2023/04/28 09:27:50;;;;;;;4.83;1.00;;;;;;;;;;5008284;28;20211;-68
2023/04/28 09:30:17;;;;;;;5.07;1.50;;;;;;;;;;5026353;28;20203;-67
2023/04/28 09:32:44;;;;;;;3.00;1.43;;;;;;;;;;5027004;28;20224;-67
2023/04/28 09:35:11;;;;;;;3.20;1.47;;;;;;;;;;5025770;28;20194;-67
2023/04/28 09:37:38;;;;;;;3.43;1.30;;;;;;;;;;5026950;28;20698;-67
2023/04/28 09:40:06;;;;;;;4.03;1.50;;;;;;;;;;5014385;28;20206;-68
2023/04/28 09:42:34;;;;;;;5.87;1.70;;;;;;;;;;5008711;28;20229;-67
2023/04/28 09:45:04;;;;;;;4.60;1.60;;;;;;;;;;5014523;28;20219;-67
2023/04/28 09:47:33;;;;;;;2.97;1.63;;;;;;;;;;5026386;28;20195;-67
2023/04/28 09:50:01;;;;;;;2.00;1.30;;;;;;;;;;5007007;28;20202;-67
2023/04/28 09:52:28;;;;;;;1.57;1.20;;;;;;;;;;5017510;28;20219;-68
2023/04/28 09:54:57;;;;;;;3.13;1.20;;;;;;;;;;4995777;28;20251;-66
2023/04/28 09:57:24;;;;;;;4.53;1.60;;;;;;;;;;5006890;28;20204;-65
2023/04/28 09:59:51;;;;;;;3.57;1.80;;;;;;;;;;5024593;28;20194;-65
2023/04/28 10:02:22;;;;;;;3.17;1.73;;;;;;;;;;5021519;28;20238;-66
2023/04/28 10:05:09;;;;;;;5.10;1.80;;;;;;;;;;5022188;28;20183;-68
2023/04/28 10:07:37;;;;;;;4.27;1.80;;;;;;;;;;5027484;28;20263;-69
2023/04/28 10:10:05;;;;;;;4.67;1.60;;;;;;;;;;5018892;28;20277;-67
2023/04/28 10:12:32;;;;;;;4.47;1.77;;;;;;;;;;5003237;28;20560;-65
2023/04/28 10:14:59;;;;;;;2.70;1.57;;;;;;;;;;5007978;28;20282;-66
2023/04/28 10:17:28;;;;;;;2.50;1.40;;;;;;;;;;5005874;28;20200;-64
2023/04/28 10:19:56;;;;;;;3.80;1.40;;;;;;;;;;5023661;28;20278;-63
2023/04/28 10:22:41;;;;;;;3.83;1.67;;;;;;;;;;5025997;28;20625;-65
2023/04/28 10:25:10;;;;;;;3.20;1.33;;;;;;;;;;5018071;28;20208;-64
2023/04/28 10:27:38;;;;;;;4.30;1.50;;;;;;;;;;5019078;28;20180;-64
2023/04/28 10:30:27;;;;;;;2.17;1.30;;;;;;;;;;5007053;28;20223;-65
2023/04/28 10:33:05;;;;;;;2.87;1.70;;;;;;;;;;5021245;28;20188;-66
2023/04/28 10:35:35;;;;;;;3.10;1.67;;;;;;;;;;5022442;28;20194;-66
2023/04/28 10:38:08;;;;;;;2.83;1.77;;;;;;;;;;5020038;28;20200;-66
2023/04/28 10:40:54;;;;;;;4.50;1.53;;;;;;;;;;5023693;28;20237;-67
2023/04/28 10:43:32;;;;;;;3.70;1.43;;;;;;;;;;5023911;28;20277;-67
2023/04/28 10:46:03;;;;;;;2.73;1.60;;;;;;;;;;5025146;28;20187;-67
2023/04/28 10:48:36;;;;;;;6.27;1.67;;;;;;;;;;5019639;28;20191;-66
2023/04/28 10:51:03;;;;;;;4.07;1.57;;;;;;;;;;5012507;28;20200;-68
2023/04/28 10:53:45;;;;;;;4.60;1.80;;;;;;;;;;5014380;28;20261;-68
2023/04/28 10:56:15;;;;;;;4.97;1.80;;;;;;;;;;5011949;28;20195;-67
2023/04/28 10:58:44;;;;;;;7.43;3.73;;;;;;;;;;5023479;28;20183;-68
2023/04/28 11:01:20;;;;;;;4.07;1.77;;;;;;;;;;5012339;28;20212;-67
2023/04/28 11:03:53;;;;;;;3.10;1.70;;;;;;;;;;5007014;28;20195;-69
2023/04/28 11:06:27;;;;;;;5.77;1.87;;;;;;;;;;5017903;28;20195;-67
2023/04/28 11:08:56;;;;;;;4.80;2.50;;;;;;;;;;5025218;28;20329;-69
2023/04/28 11:11:26;;;;;;;3.80;1.80;;;;;;;;;;5002503;28;20257;-68
2023/04/28 11:13:53;;;;;;;4.20;1.87;;;;;;;;;;5023854;28;20202;-68
2023/04/28 11:16:24;;;;;;;3.27;2.10;;;;;;;;;;4997909;28;21063;-69
2023/04/28 11:18:54;;;;;;;2.80;1.60;;;;;;;;;;5004411;28;20339;-68
2023/04/28 11:21:22;;;;;;;1.60;1.47;;;;;;;;;;5011079;28;20195;-69
2023/04/28 11:23:49;;;;;;;3.83;1.63;;;;;;;;;;5024423;28;20192;-66
2023/04/28 11:26:16;;;;;;;3.30;1.57;;;;;;;;;;5015985;28;20703;-65
2023/04/28 11:28:46;;;;;;;2.83;1.50;;;;;;;;;;5005477;28;20242;-67
2023/04/28 11:31:22;;;;;;;3.07;1.50;;;;;;;;;;5010446;28;20195;-72
2023/04/28 11:33:50;;;;;;;3.00;1.33;;;;;;;;;;5007737;28;20554;-71
2023/04/28 11:36:26;;;;;;;3.43;1.63;;;;;;;;;;5026024;28;20222;-71
2023/04/28 11:38:56;;;;;;;3.77;2.10;;;;;;;;;;5008746;28;20196;-72
2023/04/28 11:41:23;;;;;;;2.93;1.70;;;;;;;;;;5016844;28;20195;-70
2023/04/28 11:43:50;;;;;;;4.07;1.60;;;;;;;;;;5006056;28;20200;-71
2023/04/28 11:46:20;;;;;;;2.87;1.93;;;;;;;;;;5009779;28;20192;-70
2023/04/28 11:48:49;;;;;;;3.57;1.53;;;;;;;;;;5027092;28;20603;-70
2023/04/28 11:51:28;;;;;;;5.47;1.50;;;;;;;;;;5028103;28;20271;-71
2023/04/28 11:53:54;;;;;;;3.97;1.60;;;;;;;;;;5030901;28;20206;-71
2023/04/28 11:56:22;;;;;;;4.13;1.90;;;;;;;;;;5029493;28;20204;-71
2023/04/28 11:59:02;;;;;;;2.37;1.57;;;;;;;;;;5031222;28;20202;-69
2023/04/28 12:01:32;;;;;;;3.20;1.70;;;;;;;;;;5008238;28;21022;-72
2023/04/28 12:03:58;;;;;;;4.33;1.70;;;;;;;;;;5012058;28;20206;-71
2023/04/28 12:06:26;;;;;;;3.80;2.30;;;;;;;;;;5012575;28;20635;-71
2023/04/28 12:08:53;;;;;;;4.83;2.10;;;;;;;;;;5029879;28;20231;-71
2023/04/28 12:11:20;;;;;;;5.67;2.70;;;;;;;;;;5024876;28;20203;-71
2023/04/28 12:14:09;;;;;;;5.83;2.13;;;;;;;;;;5011032;28;20193;-70
2023/04/28 12:16:38;;;;;;;5.60;1.73;;;;;;;;;;5021425;28;20192;-71
2023/04/28 12:19:08;;;;;;;7.93;2.20;;;;;;;;;;5032905;28;21038;-71
2023/04/28 12:21:36;;;;;;;4.83;1.67;;;;;;;;;;5015665;28;20196;-70
2023/04/28 12:24:14;;;;;;;3.50;1.93;;;;;;;;;;5015145;28;20203;-71
2023/04/28 12:26:41;;;;;;;4.07;1.83;;;;;;;;;;5014878;28;20273;-71
2023/04/28 12:29:09;;;;;;;3.43;1.90;;;;;;;;;;5015900;28;20191;-71
2023/04/28 12:31:49;;;;;;;4.47;2.03;;;;;;;;;;5032923;28;20206;-71
2023/04/28 12:34:17;;;;;;;4.00;1.90;;;;;;;;;;5015134;28;20195;-75
2023/04/28 12:36:45;;;;;;;4.60;2.00;;;;;;;;;;5032722;28;20677;-73
2023/04/28 12:39:12;;;;;;;3.07;1.80;;;;;;;;;;5033201;28;20188;-70
2023/04/28 12:41:39;;;;;;;4.17;1.90;;;;;;;;;;5020748;28;20187;-71
2023/04/28 12:44:06;;;;;;;4.07;1.90;;;;;;;;;;5029838;28;20219;-69
2023/04/28 12:46:32;;;;;;;3.53;1.93;;;;;;;;;;5032587;28;20208;-69
2023/04/28 12:48:59;;;;;;;7.93;1.93;;;;;;;;;;5032644;28;20282;-71
2023/04/28 12:51:28;;;;;;;3.50;2.00;;;;;;;;;;5032400;28;20199;-69
2023/04/28 12:53:55;;;;;;;3.77;1.70;;;;;;;;;;5015797;28;20186;-70
2023/04/28 12:56:22;;;;;;;4.80;1.87;;;;;;;;;;5032664;28;20295;-70
2023/04/28 12:58:49;;;;;;;3.73;2.10;;;;;;;;;;5014663;28;20191;-70
2023/04/28 13:01:16;;;;;;;3.40;1.70;;;;;;;;;;5013668;28;20200;-71
2023/04/28 13:03:43;;;;;;;4.43;1.70;;;;;;;;;;5032136;28;20241;-70
2023/04/28 13:06:10;;;;;;;4.43;1.83;;;;;;;;;;5032235;28;20245;-70
2023/04/28 13:08:38;;;;;;;2.13;1.73;;;;;;;;;;5031794;28;20223;-70
2023/04/28 13:11:05;;;;;;;2.87;1.73;;;;;;;;;;4998018;28;20536;-69
2023/04/28 13:13:47;;;;;;;5.07;1.77;;;;;;;;;;5031812;28;20195;-68
2023/04/28 13:16:16;;;;;;;1.97;1.50;;;;;;;;;;5032301;28;20192;-69
2023/04/28 13:18:43;;;;;;;3.30;1.73;;;;;;;;;;5030920;28;20605;-69
2023/04/28 13:21:10;;;;;;;3.80;1.80;;;;;;;;;;5032302;28;20187;-69
2023/04/28 13:23:37;;;;;;;3.47;1.73;;;;;;;;;;5031305;28;20702;-69
2023/04/28 13:26:04;;;;;;;2.47;1.60;;;;;;;;;;5031778;28;20223;-69
2023/04/28 13:28:31;;;;;;;2.80;1.70;;;;;;;;;;5014730;28;20199;-69
2023/04/28 13:30:58;;;;;;;3.23;1.60;;;;;;;;;;5032216;28;20194;-69
2023/04/28 13:33:29;;;;;;;3.13;1.73;;;;;;;;;;5032275;28;20188;-69
2023/04/28 13:35:57;;;;;;;4.07;1.90;;;;;;;;;;5031069;28;20286;-69
2023/04/28 13:38:25;;;;;;;2.93;1.80;;;;;;;;;;5014383;28;20249;-69
2023/04/28 13:40:51;;;;;;;4.13;2.00;;;;;;;;;;5014442;28;20588;-69
2023/04/28 13:43:18;;;;;;;2.60;1.60;;;;;;;;;;5031862;28;20256;-69
2023/04/28 13:45:46;;;;;;;4.33;2.00;;;;;;;;;;5031795;28;20190;-69
2023/04/28 13:48:13;;;;;;;4.93;2.30;;;;;;;;;;5031211;28;20194;-68
2023/04/28 13:50:40;;;;;;;6.00;2.93;;;;;;;;;;5031265;28;20198;-69
2023/04/28 13:53:07;;;;;;;5.00;2.60;;;;;;;;;;5030534;28;20686;-69
2023/04/28 13:55:34;;;;;;;10.90;2.80;;;;;;;;;;5031544;28;20195;-69
2023/04/28 13:58:03;;;;;;;4.47;2.30;;;;;;;;;;5031004;28;20222;-69
2023/04/28 14:00:31;;;;;;;5.33;2.50;;;;;;;;;;5014157;28;20786;-69
2023/04/28 14:02:58;;;;;;;7.40;2.33;;;;;;;;;;5030777;28;20215;-68
2023/04/28 14:05:25;;;;;;;4.73;2.20;;;;;;;;;;5031390;28;20203;-69
2023/04/28 14:07:55;;;;;;;7.60;2.27;;;;;;;;;;5031419;28;20318;-69
2023/04/28 14:10:22;;;;;;;3.73;2.00;;;;;;;;;;5012746;28;20646;-69
2023/04/28 14:12:49;;;;;;;4.73;2.00;;;;;;;;;;5025013;28;20202;-69
2023/04/28 14:15:16;;;;;;;7.67;2.83;;;;;;;;;;5030053;28;20719;-69
2023/04/28 14:17:43;;;;;;;4.93;2.10;;;;;;;;;;5031081;28;20831;-69
2023/04/28 14:20:10;;;;;;;4.83;2.33;;;;;;;;;;5014153;28;20249;-69
2023/04/28 14:22:37;;;;;;;7.73;2.47;;;;;;;;;;5031185;28;20211;-68
2023/04/28 14:25:04;;;;;;;6.90;2.47;;;;;;;;;;5031286;28;20241;-69
2023/04/28 14:27:32;;;;;;;5.30;2.57;;;;;;;;;;5031050;28;20192;-68
2023/04/28 14:29:59;;;;;;;5.27;2.37;;;;;;;;;;5020493;28;20200;-69
2023/04/28 14:32:26;;;;;;;4.57;2.40;;;;;;;;;;5011710;28;20257;-69
2023/04/28 14:34:53;;;;;;;6.50;2.37;;;;;;;;;;4989408;28;20204;-69
2023/04/28 14:37:19;;;;;;;7.73;2.63;;;;;;;;;;5023186;28;20214;-69
2023/04/28 14:39:47;;;;;;;5.53;2.97;;;;;;;;;;5013071;28;20551;-69
2023/04/28 14:42:13;;;;;;;4.80;2.67;;;;;;;;;;5011402;28;20214;-69
2023/04/28 14:44:40;;;;;;;6.23;2.93;;;;;;;;;;5012649;28;20192;-69
2023/04/28 14:47:07;;;;;;;4.57;2.77;;;;;;;;;;5026950;28;20662;-69
2023/04/28 14:49:34;;;;;;;5.67;2.80;;;;;;;;;;5027711;28;20819;-69
2023/04/28 14:52:01;;;;;;;8.87;2.73;;;;;;;;;;5029116;28;20282;-69
2023/04/28 14:54:28;;;;;;;5.77;2.70;;;;;;;;;;5030351;28;20207;-70
2023/04/28 14:56:55;;;;;;;4.93;2.60;;;;;;;;;;5013729;28;20547;-70
2023/04/28 14:59:21;;;;;;;5.10;2.33;;;;;;;;;;5012817;28;20282;-70
2023/04/28 15:01:50;;;;;;;3.57;2.10;;;;;;;;;;5011524;28;20543;-70
2023/04/28 15:04:17;;;;;;;3.97;2.50;;;;;;;;;;5027621;28;20621;-72
2023/04/28 15:06:44;;;;;;;3.73;2.03;;;;;;;;;;5027680;28;20187;-70
2023/04/28 15:09:11;;;;;;;4.40;2.40;;;;;;;;;;5022368;28;20651;-70
2023/04/28 15:11:39;;;;;;;7.27;2.43;;;;;;;;;;5029507;28;20215;-71
2023/04/28 15:14:06;;;;;;;4.83;2.60;;;;;;;;;;5030209;28;20206;-70
2023/04/28 15:16:33;;;;;;;5.20;2.80;;;;;;;;;;5030763;28;20188;-70
2023/04/28 15:18:59;;;;;;;4.23;2.50;;;;;;;;;;5012275;28;20532;-70
2023/04/28 15:21:28;;;;;;;5.33;2.60;;;;;;;;;;5025355;28;20176;-70
2023/04/28 15:23:55;;;;;;;4.03;2.33;;;;;;;;;;5012079;28;20231;-70